sensor_id;sensor_type;location;lat;lon;timestamp;temperature;humidity
6110;DHT22;3085;49.444;11.054;2023-06-05T00:02:08;18.10;75.00
6110;DHT22;3085;49.444;11.054;2023-06-05T00:04:35;18.20;74.70
6110;DHT22;3085;49.444;11.054;2023-06-05T00:07:02;18.10;75.30
6110;DHT22;3085;49.444;11.054;2023-06-05T00:09:29;18.10;74.50
6110;DHT22;3085;49.444;11.054;2023-06-05T00:11:56;18.00;74.30
6110;DHT22;3085;49.444;11.054;2023-06-05T00:14:23;18.00;74.50
6110;DHT22;3085;49.444;11.054;2023-06-05T00:16:50;18.00;74.60
6110;DHT22;3085;49.444;11.054;2023-06-05T00:19:18;18.10;74.30
6110;DHT22;3085;49.444;11.054;2023-06-05T00:21:45;18.10;74.30
6110;DHT22;3085;49.444;11.054;2023-06-05T00:24:12;18.00;74.40
6110;DHT22;3085;49.444;11.054;2023-06-05T00:26:39;17.90;74.90
6110;DHT22;3085;49.444;11.054;2023-06-05T00:29:05;17.90;75.00
6110;DHT22;3085;49.444;11.054;2023-06-05T00:31:33;17.90;74.60
6110;DHT22;3085;49.444;11.054;2023-06-05T00:34:00;17.80;74.60
6110;DHT22;3085;49.444;11.054;2023-06-05T00:36:28;17.70;74.90
6110;DHT22;3085;49.444;11.054;2023-06-05T00:38:55;17.70;75.10
6110;DHT22;3085;49.444;11.054;2023-06-05T00:41:22;17.60;75.00
6110;DHT22;3085;49.444;11.054;2023-06-05T00:43:49;17.50;75.60
6110;DHT22;3085;49.444;11.054;2023-06-05T00:46:16;17.30;75.50
6110;DHT22;3085;49.444;11.054;2023-06-05T00:48:43;17.30;75.60
6110;DHT22;3085;49.444;11.054;2023-06-05T00:51:12;17.30;75.50
6110;DHT22;3085;49.444;11.054;2023-06-05T00:53:44;17.40;75.30
6110;DHT22;3085;49.444;11.054;2023-06-05T00:56:12;17.50;75.10
6110;DHT22;3085;49.444;11.054;2023-06-05T00:58:39;17.60;75.10
6110;DHT22;3085;49.444;11.054;2023-06-05T01:01:06;17.50;74.90
6110;DHT22;3085;49.444;11.054;2023-06-05T01:03:36;17.60;74.90
6110;DHT22;3085;49.444;11.054;2023-06-05T01:06:05;17.40;75.10
6110;DHT22;3085;49.444;11.054;2023-06-05T01:08:32;17.40;75.00
6110;DHT22;3085;49.444;11.054;2023-06-05T01:11:11;17.30;75.70
6110;DHT22;3085;49.444;11.054;2023-06-05T01:13:45;17.40;75.10
6110;DHT22;3085;49.444;11.054;2023-06-05T01:16:14;17.20;75.90
6110;DHT22;3085;49.444;11.054;2023-06-05T01:18:41;17.30;75.70
6110;DHT22;3085;49.444;11.054;2023-06-05T01:21:12;17.20;75.00
6110;DHT22;3085;49.444;11.054;2023-06-05T01:23:43;17.30;74.80
6110;DHT22;3085;49.444;11.054;2023-06-05T01:26:16;17.30;74.80
6110;DHT22;3085;49.444;11.054;2023-06-05T01:28:47;17.30;75.40
6110;DHT22;3085;49.444;11.054;2023-06-05T01:31:19;17.10;75.10
6110;DHT22;3085;49.444;11.054;2023-06-05T01:33:50;17.30;74.80
6110;DHT22;3085;49.444;11.054;2023-06-05T01:36:18;17.20;74.50
6110;DHT22;3085;49.444;11.054;2023-06-05T01:38:48;17.30;74.60
6110;DHT22;3085;49.444;11.054;2023-06-05T01:41:16;17.10;76.30
6110;DHT22;3085;49.444;11.054;2023-06-05T01:43:46;17.10;74.30
6110;DHT22;3085;49.444;11.054;2023-06-05T01:46:16;17.20;74.50
6110;DHT22;3085;49.444;11.054;2023-06-05T01:48:44;17.20;74.30
6110;DHT22;3085;49.444;11.054;2023-06-05T01:51:11;17.20;74.00
6110;DHT22;3085;49.444;11.054;2023-06-05T01:53:38;17.20;73.70
6110;DHT22;3085;49.444;11.054;2023-06-05T01:56:06;17.30;73.60
6110;DHT22;3085;49.444;11.054;2023-06-05T01:58:34;17.10;73.60
6110;DHT22;3085;49.444;11.054;2023-06-05T02:01:02;16.90;74.20
6110;DHT22;3085;49.444;11.054;2023-06-05T02:03:30;17.00;74.30
6110;DHT22;3085;49.444;11.054;2023-06-05T02:05:57;17.10;73.60
6110;DHT22;3085;49.444;11.054;2023-06-05T02:08:24;17.00;73.60
6110;DHT22;3085;49.444;11.054;2023-06-05T02:10:53;16.70;73.80
6110;DHT22;3085;49.444;11.054;2023-06-05T02:13:22;16.70;74.30
6110;DHT22;3085;49.444;11.054;2023-06-05T02:15:50;16.80;74.20
6110;DHT22;3085;49.444;11.054;2023-06-05T02:18:21;16.80;74.20
6110;DHT22;3085;49.444;11.054;2023-06-05T02:20:53;16.80;74.10
6110;DHT22;3085;49.444;11.054;2023-06-05T02:23:20;16.70;73.60
6110;DHT22;3085;49.444;11.054;2023-06-05T02:25:47;16.70;73.90
6110;DHT22;3085;49.444;11.054;2023-06-05T02:28:14;16.70;73.50
6110;DHT22;3085;49.444;11.054;2023-06-05T02:30:43;16.80;74.20
6110;DHT22;3085;49.444;11.054;2023-06-05T02:33:10;16.80;73.30
6110;DHT22;3085;49.444;11.054;2023-06-05T02:35:37;16.80;73.60
6110;DHT22;3085;49.444;11.054;2023-06-05T02:38:06;16.60;74.30
6110;DHT22;3085;49.444;11.054;2023-06-05T02:40:32;16.70;74.10
6110;DHT22;3085;49.444;11.054;2023-06-05T02:42:59;16.80;73.80
6110;DHT22;3085;49.444;11.054;2023-06-05T02:45:26;16.80;73.60
6110;DHT22;3085;49.444;11.054;2023-06-05T02:47:55;16.90;73.70
6110;DHT22;3085;49.444;11.054;2023-06-05T02:50:22;16.80;74.30
6110;DHT22;3085;49.444;11.054;2023-06-05T02:52:48;16.80;73.60
6110;DHT22;3085;49.444;11.054;2023-06-05T02:55:15;16.90;73.80
6110;DHT22;3085;49.444;11.054;2023-06-05T02:57:43;16.90;73.70
6110;DHT22;3085;49.444;11.054;2023-06-05T03:00:11;16.80;73.80
6110;DHT22;3085;49.444;11.054;2023-06-05T03:02:41;16.70;73.90
6110;DHT22;3085;49.444;11.054;2023-06-05T03:05:15;16.70;74.60
6110;DHT22;3085;49.444;11.054;2023-06-05T03:07:43;16.70;74.60
6110;DHT22;3085;49.444;11.054;2023-06-05T03:10:10;16.80;74.30
6110;DHT22;3085;49.444;11.054;2023-06-05T03:12:37;16.60;74.00
6110;DHT22;3085;49.444;11.054;2023-06-05T03:15:05;16.70;74.00
6110;DHT22;3085;49.444;11.054;2023-06-05T03:17:33;16.70;74.20
6110;DHT22;3085;49.444;11.054;2023-06-05T03:19:59;16.70;74.40
6110;DHT22;3085;49.444;11.054;2023-06-05T03:22:28;16.70;74.50
6110;DHT22;3085;49.444;11.054;2023-06-05T03:24:55;16.70;74.40
6110;DHT22;3085;49.444;11.054;2023-06-05T03:27:23;16.70;74.80
6110;DHT22;3085;49.444;11.054;2023-06-05T03:29:50;16.70;74.90
6110;DHT22;3085;49.444;11.054;2023-06-05T03:32:16;16.70;75.00
6110;DHT22;3085;49.444;11.054;2023-06-05T03:34:43;16.60;75.00
6110;DHT22;3085;49.444;11.054;2023-06-05T03:37:14;16.60;75.10
6110;DHT22;3085;49.444;11.054;2023-06-05T03:39:42;16.60;75.60
6110;DHT22;3085;49.444;11.054;2023-06-05T03:42:08;16.60;75.20
6110;DHT22;3085;49.444;11.054;2023-06-05T03:44:36;16.70;75.40
6110;DHT22;3085;49.444;11.054;2023-06-05T03:47:03;16.70;75.60
6110;DHT22;3085;49.444;11.054;2023-06-05T03:49:30;16.60;75.30
6110;DHT22;3085;49.444;11.054;2023-06-05T03:51:57;16.50;75.80
6110;DHT22;3085;49.444;11.054;2023-06-05T03:54:26;16.60;75.60
6110;DHT22;3085;49.444;11.054;2023-06-05T03:56:54;16.60;75.70
6110;DHT22;3085;49.444;11.054;2023-06-05T03:59:23;16.50;75.90
6110;DHT22;3085;49.444;11.054;2023-06-05T04:01:51;16.60;75.90
6110;DHT22;3085;49.444;11.054;2023-06-05T04:04:18;16.50;75.90
6110;DHT22;3085;49.444;11.054;2023-06-05T04:06:45;16.40;76.10
6110;DHT22;3085;49.444;11.054;2023-06-05T04:09:12;16.40;76.40
6110;DHT22;3085;49.444;11.054;2023-06-05T04:11:40;16.60;76.20
6110;DHT22;3085;49.444;11.054;2023-06-05T04:14:09;16.60;76.20
6110;DHT22;3085;49.444;11.054;2023-06-05T04:16:36;16.60;76.40
6110;DHT22;3085;49.444;11.054;2023-06-05T04:19:04;16.60;76.60
6110;DHT22;3085;49.444;11.054;2023-06-05T04:21:32;16.60;77.60
6110;DHT22;3085;49.444;11.054;2023-06-05T04:23:59;16.70;76.80
6110;DHT22;3085;49.444;11.054;2023-06-05T04:26:26;16.70;77.10
6110;DHT22;3085;49.444;11.054;2023-06-05T04:28:53;16.80;76.90
6110;DHT22;3085;49.444;11.054;2023-06-05T04:31:23;16.70;76.60
6110;DHT22;3085;49.444;11.054;2023-06-05T04:33:50;16.80;76.70
6110;DHT22;3085;49.444;11.054;2023-06-05T04:36:17;16.70;76.90
6110;DHT22;3085;49.444;11.054;2023-06-05T04:38:44;16.80;76.80
6110;DHT22;3085;49.444;11.054;2023-06-05T04:41:12;16.90;77.10
6110;DHT22;3085;49.444;11.054;2023-06-05T04:43:39;16.90;77.00
6110;DHT22;3085;49.444;11.054;2023-06-05T04:46:06;16.80;77.60
6110;DHT22;3085;49.444;11.054;2023-06-05T04:48:34;16.80;77.20
6110;DHT22;3085;49.444;11.054;2023-06-05T04:51:02;16.90;77.40
6110;DHT22;3085;49.444;11.054;2023-06-05T04:53:29;16.90;77.60
6110;DHT22;3085;49.444;11.054;2023-06-05T04:55:56;17.00;78.40
6110;DHT22;3085;49.444;11.054;2023-06-05T04:58:25;16.90;77.50
6110;DHT22;3085;49.444;11.054;2023-06-05T05:00:52;16.80;77.60
6110;DHT22;3085;49.444;11.054;2023-06-05T05:03:19;17.00;77.60
6110;DHT22;3085;49.444;11.054;2023-06-05T05:05:47;17.10;77.90
6110;DHT22;3085;49.444;11.054;2023-06-05T05:08:14;17.00;77.10
6110;DHT22;3085;49.444;11.054;2023-06-05T05:10:40;17.10;77.40
6110;DHT22;3085;49.444;11.054;2023-06-05T05:13:07;17.00;77.10
6110;DHT22;3085;49.444;11.054;2023-06-05T05:15:34;17.10;77.20
6110;DHT22;3085;49.444;11.054;2023-06-05T05:18:01;17.20;77.40
6110;DHT22;3085;49.444;11.054;2023-06-05T05:20:29;17.10;77.60
6110;DHT22;3085;49.444;11.054;2023-06-05T05:22:59;17.30;77.60
6110;DHT22;3085;49.444;11.054;2023-06-05T05:25:26;17.40;77.40
6110;DHT22;3085;49.444;11.054;2023-06-05T05:27:54;17.50;77.80
6110;DHT22;3085;49.444;11.054;2023-06-05T05:30:21;17.60;77.40
6110;DHT22;3085;49.444;11.054;2023-06-05T05:32:47;17.60;77.70
6110;DHT22;3085;49.444;11.054;2023-06-05T05:35:14;17.50;77.60
6110;DHT22;3085;49.444;11.054;2023-06-05T05:37:41;17.60;78.80
6110;DHT22;3085;49.444;11.054;2023-06-05T05:40:10;17.60;77.70
6110;DHT22;3085;49.444;11.054;2023-06-05T05:42:38;17.70;79.10
6110;DHT22;3085;49.444;11.054;2023-06-05T05:45:06;17.80;78.90
6110;DHT22;3085;49.444;11.054;2023-06-05T05:47:33;17.80;78.00
6110;DHT22;3085;49.444;11.054;2023-06-05T05:50:00;17.70;77.90
6110;DHT22;3085;49.444;11.054;2023-06-05T05:52:26;17.80;78.30
6110;DHT22;3085;49.444;11.054;2023-06-05T05:54:53;18.00;78.00
6110;DHT22;3085;49.444;11.054;2023-06-05T05:57:21;18.10;78.10
6110;DHT22;3085;49.444;11.054;2023-06-05T05:59:48;18.20;78.20
6110;DHT22;3085;49.444;11.054;2023-06-05T06:02:15;18.30;78.20
6110;DHT22;3085;49.444;11.054;2023-06-05T06:04:42;18.40;77.80
6110;DHT22;3085;49.444;11.054;2023-06-05T06:07:09;18.50;78.00
6110;DHT22;3085;49.444;11.054;2023-06-05T06:09:36;18.30;77.70
6110;DHT22;3085;49.444;11.054;2023-06-05T06:12:04;18.20;79.10
6110;DHT22;3085;49.444;11.054;2023-06-05T06:14:34;18.20;78.40
6110;DHT22;3085;49.444;11.054;2023-06-05T06:17:01;18.30;78.30
6110;DHT22;3085;49.444;11.054;2023-06-05T06:19:31;18.30;78.40
6110;DHT22;3085;49.444;11.054;2023-06-05T06:21:58;18.50;78.60
6110;DHT22;3085;49.444;11.054;2023-06-05T06:24:25;18.50;78.70
6110;DHT22;3085;49.444;11.054;2023-06-05T06:26:52;18.50;78.70
6110;DHT22;3085;49.444;11.054;2023-06-05T06:29:20;18.60;79.20
6110;DHT22;3085;49.444;11.054;2023-06-05T06:31:50;18.70;79.20
6110;DHT22;3085;49.444;11.054;2023-06-05T06:34:17;18.60;79.70
6110;DHT22;3085;49.444;11.054;2023-06-05T06:36:44;18.80;80.50
6110;DHT22;3085;49.444;11.054;2023-06-05T06:39:11;18.70;80.20
6110;DHT22;3085;49.444;11.054;2023-06-05T06:41:38;18.80;81.10
6110;DHT22;3085;49.444;11.054;2023-06-05T06:44:05;18.90;81.00
6110;DHT22;3085;49.444;11.054;2023-06-05T06:46:32;19.00;81.80
6110;DHT22;3085;49.444;11.054;2023-06-05T06:49:00;19.20;82.00
6110;DHT22;3085;49.444;11.054;2023-06-05T06:51:27;19.30;82.40
6110;DHT22;3085;49.444;11.054;2023-06-05T06:53:54;19.40;82.50
6110;DHT22;3085;49.444;11.054;2023-06-05T06:56:21;19.70;83.20
6110;DHT22;3085;49.444;11.054;2023-06-05T06:58:48;19.70;83.50
6110;DHT22;3085;49.444;11.054;2023-06-05T07:01:15;19.70;83.60
6110;DHT22;3085;49.444;11.054;2023-06-05T07:03:42;19.70;83.00
6110;DHT22;3085;49.444;11.054;2023-06-05T07:06:10;19.80;83.30
6110;DHT22;3085;49.444;11.054;2023-06-05T07:08:37;19.90;83.80
6110;DHT22;3085;49.444;11.054;2023-06-05T07:11:04;20.10;84.30
6110;DHT22;3085;49.444;11.054;2023-06-05T07:13:31;20.20;84.80
6110;DHT22;3085;49.444;11.054;2023-06-05T07:15:58;20.30;84.60
6110;DHT22;3085;49.444;11.054;2023-06-05T07:18:25;20.40;85.10
6110;DHT22;3085;49.444;11.054;2023-06-05T07:20:52;20.60;85.70
6110;DHT22;3085;49.444;11.054;2023-06-05T07:23:20;20.70;85.50
6110;DHT22;3085;49.444;11.054;2023-06-05T07:25:47;20.70;85.70
6110;DHT22;3085;49.444;11.054;2023-06-05T07:28:14;20.70;85.80
6110;DHT22;3085;49.444;11.054;2023-06-05T07:30:41;20.90;86.10
6110;DHT22;3085;49.444;11.054;2023-06-05T07:33:09;20.90;86.20
6110;DHT22;3085;49.444;11.054;2023-06-05T07:35:36;21.10;86.70
6110;DHT22;3085;49.444;11.054;2023-06-05T07:38:03;21.10;87.40
6110;DHT22;3085;49.444;11.054;2023-06-05T07:40:31;21.20;87.20
6110;DHT22;3085;49.444;11.054;2023-06-05T07:42:58;21.20;87.30
6110;DHT22;3085;49.444;11.054;2023-06-05T07:45:25;21.20;87.10
6110;DHT22;3085;49.444;11.054;2023-06-05T07:47:52;21.30;87.40
6110;DHT22;3085;49.444;11.054;2023-06-05T07:50:19;21.20;87.50
6110;DHT22;3085;49.444;11.054;2023-06-05T07:52:46;21.20;87.70
6110;DHT22;3085;49.444;11.054;2023-06-05T07:55:12;21.30;88.30
6110;DHT22;3085;49.444;11.054;2023-06-05T07:57:41;21.30;88.00
6110;DHT22;3085;49.444;11.054;2023-06-05T08:00:09;21.40;88.20
6110;DHT22;3085;49.444;11.054;2023-06-05T08:02:36;21.40;87.90
6110;DHT22;3085;49.444;11.054;2023-06-05T08:05:05;21.40;88.00
6110;DHT22;3085;49.444;11.054;2023-06-05T08:07:32;21.40;87.80
6110;DHT22;3085;49.444;11.054;2023-06-05T08:09:59;21.30;87.90
6110;DHT22;3085;49.444;11.054;2023-06-05T08:12:26;21.50;88.20
6110;DHT22;3085;49.444;11.054;2023-06-05T08:14:54;21.30;88.00
6110;DHT22;3085;49.444;11.054;2023-06-05T08:17:21;21.50;88.40
6110;DHT22;3085;49.444;11.054;2023-06-05T08:19:49;21.40;87.70
6110;DHT22;3085;49.444;11.054;2023-06-05T08:22:16;21.50;87.60
6110;DHT22;3085;49.444;11.054;2023-06-05T08:24:42;21.50;87.50
6110;DHT22;3085;49.444;11.054;2023-06-05T08:27:09;21.50;87.80
6110;DHT22;3085;49.444;11.054;2023-06-05T08:29:36;21.80;87.60
6110;DHT22;3085;49.444;11.054;2023-06-05T08:32:05;21.60;87.60
6110;DHT22;3085;49.444;11.054;2023-06-05T08:34:32;21.70;87.90
6110;DHT22;3085;49.444;11.054;2023-06-05T08:36:59;21.80;87.50
6110;DHT22;3085;49.444;11.054;2023-06-05T08:39:26;21.80;87.80
6110;DHT22;3085;49.444;11.054;2023-06-05T08:41:57;21.90;88.40
6110;DHT22;3085;49.444;11.054;2023-06-05T08:44:26;22.00;88.80
6110;DHT22;3085;49.444;11.054;2023-06-05T08:47:00;22.00;88.30
6110;DHT22;3085;49.444;11.054;2023-06-05T08:49:28;22.10;88.60
6110;DHT22;3085;49.444;11.054;2023-06-05T08:51:59;22.20;89.00
6110;DHT22;3085;49.444;11.054;2023-06-05T08:54:28;22.30;89.90
6110;DHT22;3085;49.444;11.054;2023-06-05T08:56:58;22.30;89.70
6110;DHT22;3085;49.444;11.054;2023-06-05T08:59:26;22.30;90.10
6110;DHT22;3085;49.444;11.054;2023-06-05T09:01:53;22.30;90.50
6110;DHT22;3085;49.444;11.054;2023-06-05T09:04:20;22.50;90.70
6110;DHT22;3085;49.444;11.054;2023-06-05T09:06:48;22.60;90.90
6110;DHT22;3085;49.444;11.054;2023-06-05T09:09:17;22.70;91.00
6110;DHT22;3085;49.444;11.054;2023-06-05T09:11:45;22.60;91.00
6110;DHT22;3085;49.444;11.054;2023-06-05T09:14:12;22.60;91.10
6110;DHT22;3085;49.444;11.054;2023-06-05T09:16:40;22.60;90.70
6110;DHT22;3085;49.444;11.054;2023-06-05T09:19:09;22.50;90.90
6110;DHT22;3085;49.444;11.054;2023-06-05T09:21:36;22.50;91.10
6110;DHT22;3085;49.444;11.054;2023-06-05T09:24:15;22.50;91.50
6110;DHT22;3085;49.444;11.054;2023-06-05T09:26:54;21.00;90.70
6110;DHT22;3085;49.444;11.054;2023-06-05T09:29:22;22.50;91.50
6110;DHT22;3085;49.444;11.054;2023-06-05T09:31:50;22.50;91.30
6110;DHT22;3085;49.444;11.054;2023-06-05T09:34:21;22.60;91.40
6110;DHT22;3085;49.444;11.054;2023-06-05T09:36:48;22.60;91.20
6110;DHT22;3085;49.444;11.054;2023-06-05T09:39:17;22.60;91.30
6110;DHT22;3085;49.444;11.054;2023-06-05T09:41:46;22.80;91.40
6110;DHT22;3085;49.444;11.054;2023-06-05T09:44:14;22.90;91.20
6110;DHT22;3085;49.444;11.054;2023-06-05T09:46:51;23.00;91.50
6110;DHT22;3085;49.444;11.054;2023-06-05T09:49:19;23.00;91.50
6110;DHT22;3085;49.444;11.054;2023-06-05T09:51:47;22.90;91.60
6110;DHT22;3085;49.444;11.054;2023-06-05T09:54:15;23.00;91.70
6110;DHT22;3085;49.444;11.054;2023-06-05T09:56:46;23.00;91.90
6110;DHT22;3085;49.444;11.054;2023-06-05T09:59:19;23.10;91.40
6110;DHT22;3085;49.444;11.054;2023-06-05T10:01:49;23.00;91.30
6110;DHT22;3085;49.444;11.054;2023-06-05T10:04:18;23.60;92.00
6110;DHT22;3085;49.444;11.054;2023-06-05T10:06:46;23.30;91.70
6110;DHT22;3085;49.444;11.054;2023-06-05T10:09:15;23.20;91.80
6110;DHT22;3085;49.444;11.054;2023-06-05T10:11:42;23.30;91.90
6110;DHT22;3085;49.444;11.054;2023-06-05T10:14:10;23.40;91.80
6110;DHT22;3085;49.444;11.054;2023-06-05T10:16:37;23.30;91.30
6110;DHT22;3085;49.444;11.054;2023-06-05T10:19:06;23.50;91.70
6110;DHT22;3085;49.444;11.054;2023-06-05T10:21:33;23.40;91.60
6110;DHT22;3085;49.444;11.054;2023-06-05T10:24:03;23.40;91.30
6110;DHT22;3085;49.444;11.054;2023-06-05T10:26:50;23.40;91.30
6110;DHT22;3085;49.444;11.054;2023-06-05T10:29:40;23.50;91.50
6110;DHT22;3085;49.444;11.054;2023-06-05T10:32:18;23.50;91.20
6110;DHT22;3085;49.444;11.054;2023-06-05T10:34:56;23.60;91.20
6110;DHT22;3085;49.444;11.054;2023-06-05T10:37:41;23.50;91.10
6110;DHT22;3085;49.444;11.054;2023-06-05T10:40:11;23.60;91.20
6110;DHT22;3085;49.444;11.054;2023-06-05T10:42:39;23.60;91.40
6110;DHT22;3085;49.444;11.054;2023-06-05T10:45:07;23.70;91.70
6110;DHT22;3085;49.444;11.054;2023-06-05T10:47:53;23.80;92.10
6110;DHT22;3085;49.444;11.054;2023-06-05T10:50:21;23.90;91.80
6110;DHT22;3085;49.444;11.054;2023-06-05T10:52:51;23.90;91.30
6110;DHT22;3085;49.444;11.054;2023-06-05T10:55:18;24.00;91.30
6110;DHT22;3085;49.444;11.054;2023-06-05T10:58:08;24.10;91.80
6110;DHT22;3085;49.444;11.054;2023-06-05T11:00:36;24.10;91.10
6110;DHT22;3085;49.444;11.054;2023-06-05T11:03:04;24.00;91.30
6110;DHT22;3085;49.444;11.054;2023-06-05T11:05:33;24.10;91.30
6110;DHT22;3085;49.444;11.054;2023-06-05T11:08:15;24.00;91.30
6110;DHT22;3085;49.444;11.054;2023-06-05T11:11:02;24.00;91.50
6110;DHT22;3085;49.444;11.054;2023-06-05T11:13:54;24.20;91.70
6110;DHT22;3085;49.444;11.054;2023-06-05T11:16:29;24.30;92.10
6110;DHT22;3085;49.444;11.054;2023-06-05T11:19:36;24.50;92.10
6110;DHT22;3085;49.444;11.054;2023-06-05T11:22:05;24.20;91.20
6110;DHT22;3085;49.444;11.054;2023-06-05T11:24:33;24.60;91.10
6110;DHT22;3085;49.444;11.054;2023-06-05T11:27:01;24.50;90.80
6110;DHT22;3085;49.444;11.054;2023-06-05T11:29:30;24.40;91.30
6110;DHT22;3085;49.444;11.054;2023-06-05T11:31:57;24.40;91.40
6110;DHT22;3085;49.444;11.054;2023-06-05T11:34:24;24.40;90.90
6110;DHT22;3085;49.444;11.054;2023-06-05T11:36:53;24.30;91.10
6110;DHT22;3085;49.444;11.054;2023-06-05T11:39:20;24.30;91.10
6110;DHT22;3085;49.444;11.054;2023-06-05T11:41:49;24.50;91.50
6110;DHT22;3085;49.444;11.054;2023-06-05T11:44:31;24.50;91.50
6110;DHT22;3085;49.444;11.054;2023-06-05T11:46:58;24.40;91.70
6110;DHT22;3085;49.444;11.054;2023-06-05T11:49:26;24.20;92.00
6110;DHT22;3085;49.444;11.054;2023-06-05T11:51:54;24.30;92.30
6110;DHT22;3085;49.444;11.054;2023-06-05T11:54:26;24.30;92.10
6110;DHT22;3085;49.444;11.054;2023-06-05T11:56:57;24.20;92.00
6110;DHT22;3085;49.444;11.054;2023-06-05T11:59:24;24.00;92.20
6110;DHT22;3085;49.444;11.054;2023-06-05T12:01:52;24.30;92.30
6110;DHT22;3085;49.444;11.054;2023-06-05T12:04:20;24.20;92.30
6110;DHT22;3085;49.444;11.054;2023-06-05T12:06:47;24.10;92.40
6110;DHT22;3085;49.444;11.054;2023-06-05T12:09:14;24.10;92.50
6110;DHT22;3085;49.444;11.054;2023-06-05T12:11:42;24.10;92.60
6110;DHT22;3085;49.444;11.054;2023-06-05T12:14:10;24.30;92.60
6110;DHT22;3085;49.444;11.054;2023-06-05T12:16:38;24.50;92.40
6110;DHT22;3085;49.444;11.054;2023-06-05T12:19:12;24.50;92.00
6110;DHT22;3085;49.444;11.054;2023-06-05T12:21:39;24.60;92.30
6110;DHT22;3085;49.444;11.054;2023-06-05T12:24:07;24.70;92.10
6110;DHT22;3085;49.444;11.054;2023-06-05T12:26:50;24.50;92.10
6110;DHT22;3085;49.444;11.054;2023-06-05T12:29:19;24.20;91.70
6110;DHT22;3085;49.444;11.054;2023-06-05T12:31:47;24.30;92.20
6110;DHT22;3085;49.444;11.054;2023-06-05T12:34:15;24.30;92.20
6110;DHT22;3085;49.444;11.054;2023-06-05T12:36:43;24.40;92.40
6110;DHT22;3085;49.444;11.054;2023-06-05T12:39:11;24.60;92.80
6110;DHT22;3085;49.444;11.054;2023-06-05T12:41:38;24.80;92.40
6110;DHT22;3085;49.444;11.054;2023-06-05T12:44:05;24.90;92.00
6110;DHT22;3085;49.444;11.054;2023-06-05T12:46:34;24.70;91.60
6110;DHT22;3085;49.444;11.054;2023-06-05T12:49:02;24.80;91.70
6110;DHT22;3085;49.444;11.054;2023-06-05T12:51:30;24.90;91.60
6110;DHT22;3085;49.444;11.054;2023-06-05T12:53:57;24.80;91.50
6110;DHT22;3085;49.444;11.054;2023-06-05T12:56:24;24.70;91.50
6110;DHT22;3085;49.444;11.054;2023-06-05T12:58:53;24.70;91.60
6110;DHT22;3085;49.444;11.054;2023-06-05T13:01:20;24.60;90.60
6110;DHT22;3085;49.444;11.054;2023-06-05T13:03:47;24.40;89.60
6110;DHT22;3085;49.444;11.054;2023-06-05T13:06:14;24.40;90.30
6110;DHT22;3085;49.444;11.054;2023-06-05T13:08:43;25.50;91.70
6110;DHT22;3085;49.444;11.054;2023-06-05T13:11:16;24.70;91.20
6110;DHT22;3085;49.444;11.054;2023-06-05T13:13:43;25.10;92.00
6110;DHT22;3085;49.444;11.054;2023-06-05T13:16:10;25.30;90.50
6110;DHT22;3085;49.444;11.054;2023-06-05T13:18:37;25.20;90.70
6110;DHT22;3085;49.444;11.054;2023-06-05T13:21:05;25.30;91.00
6110;DHT22;3085;49.444;11.054;2023-06-05T13:23:32;25.30;90.70
6110;DHT22;3085;49.444;11.054;2023-06-05T13:26:00;25.00;90.90
6110;DHT22;3085;49.444;11.054;2023-06-05T13:28:28;25.10;90.90
6110;DHT22;3085;49.444;11.054;2023-06-05T13:30:55;25.10;91.00
6110;DHT22;3085;49.444;11.054;2023-06-05T13:33:22;25.00;91.30
6110;DHT22;3085;49.444;11.054;2023-06-05T13:35:53;24.80;91.10
6110;DHT22;3085;49.444;11.054;2023-06-05T13:38:20;24.70;91.40
6110;DHT22;3085;49.444;11.054;2023-06-05T13:40:48;24.70;91.80
6110;DHT22;3085;49.444;11.054;2023-06-05T13:43:18;25.10;92.20
6110;DHT22;3085;49.444;11.054;2023-06-05T13:45:45;25.20;91.40
6110;DHT22;3085;49.444;11.054;2023-06-05T13:48:12;25.40;91.30
6110;DHT22;3085;49.444;11.054;2023-06-05T13:50:39;25.60;91.00
6110;DHT22;3085;49.444;11.054;2023-06-05T13:53:06;25.70;90.40
6110;DHT22;3085;49.444;11.054;2023-06-05T13:55:32;25.60;90.20
6110;DHT22;3085;49.444;11.054;2023-06-05T13:57:59;25.80;90.30
6110;DHT22;3085;49.444;11.054;2023-06-05T14:00:30;25.90;90.40
6110;DHT22;3085;49.444;11.054;2023-06-05T14:02:58;25.80;90.70
6110;DHT22;3085;49.444;11.054;2023-06-05T14:05:25;25.80;90.30
6110;DHT22;3085;49.444;11.054;2023-06-05T14:07:52;25.60;90.60
6110;DHT22;3085;49.444;11.054;2023-06-05T14:10:21;25.50;90.60
6110;DHT22;3085;49.444;11.054;2023-06-05T14:12:48;25.50;90.70
6110;DHT22;3085;49.444;11.054;2023-06-05T14:15:15;25.20;90.60
6110;DHT22;3085;49.444;11.054;2023-06-05T14:17:44;25.10;90.90
6110;DHT22;3085;49.444;11.054;2023-06-05T14:20:11;25.00;91.20
6110;DHT22;3085;49.444;11.054;2023-06-05T14:22:39;25.30;92.00
6110;DHT22;3085;49.444;11.054;2023-06-05T14:25:07;25.30;91.30
6110;DHT22;3085;49.444;11.054;2023-06-05T14:27:34;25.40;91.00
6110;DHT22;3085;49.444;11.054;2023-06-05T14:30:02;25.20;91.10
6110;DHT22;3085;49.444;11.054;2023-06-05T14:32:29;25.50;91.30
6110;DHT22;3085;49.444;11.054;2023-06-05T14:34:57;25.60;91.20
6110;DHT22;3085;49.444;11.054;2023-06-05T14:37:24;25.20;90.80
6110;DHT22;3085;49.444;11.054;2023-06-05T14:39:52;26.50;91.20
6110;DHT22;3085;49.444;11.054;2023-06-05T14:42:19;25.90;90.40
6110;DHT22;3085;49.444;11.054;2023-06-05T14:44:46;26.00;90.20
6110;DHT22;3085;49.444;11.054;2023-06-05T14:47:13;26.10;90.60
6110;DHT22;3085;49.444;11.054;2023-06-05T14:49:40;26.20;90.00
6110;DHT22;3085;49.444;11.054;2023-06-05T14:52:09;26.20;90.10
6110;DHT22;3085;49.444;11.054;2023-06-05T14:54:36;26.30;90.60
6110;DHT22;3085;49.444;11.054;2023-06-05T14:57:04;26.40;91.00
6110;DHT22;3085;49.444;11.054;2023-06-05T14:59:31;26.10;90.60
6110;DHT22;3085;49.444;11.054;2023-06-05T15:01:58;26.00;90.90
6110;DHT22;3085;49.444;11.054;2023-06-05T15:04:25;27.30;91.30
6110;DHT22;3085;49.444;11.054;2023-06-05T15:06:53;25.90;89.60
6110;DHT22;3085;49.444;11.054;2023-06-05T15:09:22;25.70;90.10
6110;DHT22;3085;49.444;11.054;2023-06-05T15:11:49;25.70;90.20
6110;DHT22;3085;49.444;11.054;2023-06-05T15:14:17;25.60;90.30
6110;DHT22;3085;49.444;11.054;2023-06-05T15:16:44;25.50;88.70
6110;DHT22;3085;49.444;11.054;2023-06-05T15:19:11;25.60;89.30
6110;DHT22;3085;49.444;11.054;2023-06-05T15:21:38;25.10;89.80
6110;DHT22;3085;49.444;11.054;2023-06-05T15:24:06;25.00;89.00
6110;DHT22;3085;49.444;11.054;2023-06-05T15:26:35;25.20;89.60
6110;DHT22;3085;49.444;11.054;2023-06-05T15:29:01;25.50;90.60
6110;DHT22;3085;49.444;11.054;2023-06-05T15:31:29;25.70;90.30
6110;DHT22;3085;49.444;11.054;2023-06-05T15:33:55;25.80;89.90
6110;DHT22;3085;49.444;11.054;2023-06-05T15:36:22;25.60;90.20
6110;DHT22;3085;49.444;11.054;2023-06-05T15:38:51;25.50;90.10
6110;DHT22;3085;49.444;11.054;2023-06-05T15:41:18;25.30;90.00
6110;DHT22;3085;49.444;11.054;2023-06-05T15:43:46;24.90;90.70
6110;DHT22;3085;49.444;11.054;2023-06-05T15:46:13;24.50;91.30
6110;DHT22;3085;49.444;11.054;2023-06-05T15:48:40;24.10;90.80
6110;DHT22;3085;49.444;11.054;2023-06-05T15:51:07;24.00;90.60
6110;DHT22;3085;49.444;11.054;2023-06-05T15:53:34;23.90;90.70